Terminal Aerodrome Forecast
Issued by NWS Northern Indiana

Home | Current Version | Previous Version | Text Only | Print | Product List | Glossary On
Versions: 1 2 3 4 5 6 7 8 9 10 11 12 13 14 15 16 17 18
000
FTUS43 KIWX 012331
TAFFWA
TAF
KFWA 012331Z 0200/0224 05012KT P6SM OVC009
     FM020200 05012KT 4SM SHRA BR OVC006
     FM020800 34010KT 3SM BR OVC003
     FM021400 04008KT 5SM BR OVC008
     FM021900 05008KT P6SM OVC020=

USA.gov is the U.S. government's official web portal to all federal, state and local government web resources and services.